Time;durP1;ratioP1;P1;durP2;ratioP2;P2;SDS_P1;SDS_P2;PMS_P1;PMS_P2;Temp;Humidity;BMP_temperature;BMP_pressure;BME280_temperature;BME280_humidity;BME280_pressure;Samples;Min_cycle;Max_cycle;Signal;HPM_P1;HPM_P2
2022/08/15 00:00:22;;;;;;;10.80;9.70;;;;;;;;;;4990614;28;20421;-81
2022/08/15 00:02:49;;;;;;;9.90;9.00;;;;;;;;;;5007719;28;20433;-81
2022/08/15 00:05:18;;;;;;;11.05;10.15;;;;;;;;;;5009927;28;20453;-82
2022/08/15 00:07:44;;;;;;;11.55;10.45;;;;;;;;;;5008465;28;20430;-82
2022/08/15 00:10:11;;;;;;;10.52;9.73;;;;;;;;;;4992371;28;20408;-81
2022/08/15 00:12:39;;;;;;;11.40;10.30;;;;;;;;;;5008976;28;20428;-82
2022/08/15 00:15:08;;;;;;;10.20;9.30;;;;;;;;;;5007895;28;20427;-82
2022/08/15 00:17:35;;;;;;;11.55;10.35;;;;;;;;;;5007703;28;20480;-83
2022/08/15 00:20:02;;;;;;;10.13;9.30;;;;;;;;;;5008130;28;20445;-82
2022/08/15 00:22:30;;;;;;;11.60;9.77;;;;;;;;;;5011294;28;20524;-82
2022/08/15 00:24:57;;;;;;;11.05;9.95;;;;;;;;;;5011578;28;20438;-83
2022/08/15 00:27:24;;;;;;;10.43;9.33;;;;;;;;;;5009889;28;20434;-81
2022/08/15 00:29:51;;;;;;;10.90;9.90;;;;;;;;;;5008903;28;20437;-82
2022/08/15 00:32:23;;;;;;;10.60;9.55;;;;;;;;;;4990445;28;20475;-81
2022/08/15 00:34:50;;;;;;;10.00;9.05;;;;;;;;;;4989860;28;20499;-81
2022/08/15 00:37:17;;;;;;;11.93;10.02;;;;;;;;;;5008707;28;20438;-81
2022/08/15 00:39:44;;;;;;;10.80;9.70;;;;;;;;;;5011701;28;20541;-82
2022/08/15 00:42:12;;;;;;;10.95;9.95;;;;;;;;;;5010113;28;20434;-81
2022/08/15 00:44:40;;;;;;;11.25;10.35;;;;;;;;;;5008138;28;20815;-82
2022/08/15 00:47:08;;;;;;;11.60;10.40;;;;;;;;;;5007196;28;20511;-81
2022/08/15 00:49:37;;;;;;;10.50;9.50;;;;;;;;;;5008105;28;20881;-81
2022/08/15 00:52:06;;;;;;;10.73;9.82;;;;;;;;;;5007660;28;20435;-82
2022/08/15 00:54:34;;;;;;;11.48;10.38;;;;;;;;;;4991966;28;20436;-82
2022/08/15 00:57:02;;;;;;;10.82;9.82;;;;;;;;;;5007324;28;20433;-82
2022/08/15 00:59:31;;;;;;;11.80;10.60;;;;;;;;;;5009173;28;20439;-81
2022/08/15 01:01:58;;;;;;;11.82;10.25;;;;;;;;;;5008941;28;20439;-82
2022/08/15 01:04:25;;;;;;;10.30;9.40;;;;;;;;;;5008862;28;20791;-81
2022/08/15 01:06:53;;;;;;;11.75;10.52;;;;;;;;;;5007910;28;21050;-82
2022/08/15 01:09:19;;;;;;;11.10;10.10;;;;;;;;;;5008160;28;20441;-83
2022/08/15 01:11:49;;;;;;;11.23;10.23;;;;;;;;;;5006657;28;20961;-83
2022/08/15 01:14:16;;;;;;;9.93;9.02;;;;;;;;;;5008610;28;20468;-83
2022/08/15 01:16:42;;;;;;;10.85;9.75;;;;;;;;;;5008836;28;20945;-83
2022/08/15 01:19:12;;;;;;;9.60;8.70;;;;;;;;;;5007055;28;20456;-81
2022/08/15 01:21:42;;;;;;;11.30;10.30;;;;;;;;;;5008323;28;20441;-81
2022/08/15 01:24:15;;;;;;;10.20;9.30;;;;;;;;;;5009570;28;20441;-82
2022/08/15 01:26:44;;;;;;;10.73;9.73;;;;;;;;;;5006586;28;20536;-82
2022/08/15 01:29:10;;;;;;;10.60;9.77;;;;;;;;;;5008527;28;20910;-81
2022/08/15 01:31:37;;;;;;;10.50;9.50;;;;;;;;;;5007637;28;20432;-81
2022/08/15 01:34:04;;;;;;;11.23;10.23;;;;;;;;;;5008801;28;20427;-81
2022/08/15 01:36:31;;;;;;;10.48;9.23;;;;;;;;;;5007996;28;20428;-83
2022/08/15 01:39:00;;;;;;;10.13;9.23;;;;;;;;;;5006902;28;20443;-80
2022/08/15 01:41:30;;;;;;;9.70;8.90;;;;;;;;;;5008490;28;20934;-82
2022/08/15 01:44:07;;;;;;;10.23;9.32;;;;;;;;;;5009650;28;20525;-81
2022/08/15 01:46:38;;;;;;;10.30;9.20;;;;;;;;;;5006558;28;20433;-82
2022/08/15 01:49:10;;;;;;;10.73;9.82;;;;;;;;;;5007677;28;20434;-82
2022/08/15 01:51:36;;;;;;;10.98;9.90;;;;;;;;;;5006190;28;20440;-82
2022/08/15 01:54:04;;;;;;;10.27;9.30;;;;;;;;;;5008559;28;20432;-82
2022/08/15 01:56:32;;;;;;;10.60;9.50;;;;;;;;;;5005270;28;20429;-82
2022/08/15 01:59:01;;;;;;;10.90;9.98;;;;;;;;;;4991333;28;20925;-81
2022/08/15 02:01:37;;;;;;;11.63;10.35;;;;;;;;;;5007940;28;20425;-82
2022/08/15 02:04:05;;;;;;;10.13;9.13;;;;;;;;;;5004862;28;20494;-82
2022/08/15 02:06:31;;;;;;;13.02;9.73;;;;;;;;;;5007395;28;20901;-81
2022/08/15 02:09:02;;;;;;;10.65;9.75;;;;;;;;;;5007323;28;20434;-81
2022/08/15 02:11:30;;;;;;;10.15;9.25;;;;;;;;;;5008003;28;20527;-81
2022/08/15 02:13:57;;;;;;;10.23;9.23;;;;;;;;;;5009955;28;20444;-81
2022/08/15 02:16:29;;;;;;;10.30;9.40;;;;;;;;;;5006680;28;20431;-81
2022/08/15 02:18:56;;;;;;;9.88;8.88;;;;;;;;;;5007115;28;20440;-80
2022/08/15 02:21:23;;;;;;;10.13;9.23;;;;;;;;;;5008511;28;21467;-81
2022/08/15 02:23:50;;;;;;;10.60;9.50;;;;;;;;;;5007299;28;20441;-82
2022/08/15 02:26:17;;;;;;;11.10;9.90;;;;;;;;;;5004024;28;20436;-84
2022/08/15 02:28:44;;;;;;;10.65;9.65;;;;;;;;;;5007600;28;20443;-81
2022/08/15 02:31:15;;;;;;;10.70;9.50;;;;;;;;;;5007061;28;20441;-81
2022/08/15 02:33:45;;;;;;;10.50;9.52;;;;;;;;;;5006277;28;21193;-82
2022/08/15 02:36:13;;;;;;;9.88;8.98;;;;;;;;;;4989607;28;20495;-82
2022/08/15 02:38:40;;;;;;;10.25;9.30;;;;;;;;;;5007546;28;20492;-82
2022/08/15 02:41:06;;;;;;;9.80;8.90;;;;;;;;;;5007440;28;20440;-81
2022/08/15 02:43:33;;;;;;;10.33;9.53;;;;;;;;;;5005390;28;20443;-82
2022/08/15 02:45:59;;;;;;;10.40;9.00;;;;;;;;;;5006776;28;20429;-82
2022/08/15 02:48:26;;;;;;;9.40;8.60;;;;;;;;;;5007810;28;20443;-82
2022/08/15 02:50:54;;;;;;;10.20;9.20;;;;;;;;;;5007961;28;20426;-82
2022/08/15 02:53:20;;;;;;;10.15;9.15;;;;;;;;;;5007539;28;20469;-82
2022/08/15 02:55:48;;;;;;;10.25;9.25;;;;;;;;;;4987624;28;20420;-80
2022/08/15 02:58:15;;;;;;;11.07;9.97;;;;;;;;;;5008486;28;20429;-82
2022/08/15 03:00:42;;;;;;;10.05;9.20;;;;;;;;;;4989350;28;20938;-83
2022/08/15 03:03:10;;;;;;;10.80;9.70;;;;;;;;;;5006755;28;20430;-82
2022/08/15 03:05:39;;;;;;;11.90;10.27;;;;;;;;;;5007635;28;20431;-81
2022/08/15 03:08:07;;;;;;;10.40;9.40;;;;;;;;;;5007764;28;20499;-81
2022/08/15 03:10:34;;;;;;;11.18;10.20;;;;;;;;;;5004326;28;20426;-81
2022/08/15 03:13:01;;;;;;;10.23;9.07;;;;;;;;;;4988826;28;20845;-81
2022/08/15 03:15:32;;;;;;;11.85;10.75;;;;;;;;;;5007151;28;20420;-80
2022/08/15 03:17:58;;;;;;;10.70;9.80;;;;;;;;;;5005943;28;20429;-82
2022/08/15 03:20:25;;;;;;;10.55;9.43;;;;;;;;;;5005524;28;20444;-81
2022/08/15 03:22:53;;;;;;;10.48;9.57;;;;;;;;;;4988545;28;20426;-83
2022/08/15 03:25:24;;;;;;;12.02;10.43;;;;;;;;;;4988724;28;20879;-81
2022/08/15 03:27:50;;;;;;;10.60;9.70;;;;;;;;;;5006269;28;20536;-82
2022/08/15 03:30:17;;;;;;;10.77;9.70;;;;;;;;;;5002807;28;20901;-82
2022/08/15 03:32:45;;;;;;;10.40;9.40;;;;;;;;;;5005876;28;20428;-83
2022/08/15 03:35:11;;;;;;;10.80;9.70;;;;;;;;;;5006892;28;20419;-82
2022/08/15 03:37:38;;;;;;;10.98;9.98;;;;;;;;;;5005443;28;20938;-82
2022/08/15 03:40:06;;;;;;;11.40;10.23;;;;;;;;;;5005898;28;20434;-82
2022/08/15 03:42:34;;;;;;;11.48;9.45;;;;;;;;;;5004637;28;20439;-82
2022/08/15 03:45:02;;;;;;;12.15;10.30;;;;;;;;;;5006135;28;20430;-82
2022/08/15 03:47:30;;;;;;;11.20;10.10;;;;;;;;;;5006161;28;20504;-82
2022/08/15 03:49:57;;;;;;;10.43;9.52;;;;;;;;;;5006069;28;20926;-80
2022/08/15 03:52:24;;;;;;;11.02;9.63;;;;;;;;;;4986120;28;20445;-80
2022/08/15 03:54:51;;;;;;;10.93;9.80;;;;;;;;;;4988314;28;20436;-81
2022/08/15 03:57:17;;;;;;;10.70;9.60;;;;;;;;;;5004806;28;20428;-81
2022/08/15 03:59:45;;;;;;;11.23;10.10;;;;;;;;;;5007283;28;20431;-81
2022/08/15 04:02:12;;;;;;;10.82;9.90;;;;;;;;;;5005116;28;20436;-81
2022/08/15 04:04:40;;;;;;;12.82;10.75;;;;;;;;;;5004256;28;20433;-82
2022/08/15 04:07:07;;;;;;;10.68;9.77;;;;;;;;;;5006500;28;20426;-80
2022/08/15 04:09:34;;;;;;;11.52;9.95;;;;;;;;;;5009006;28;20439;-80
2022/08/15 04:12:00;;;;;;;10.20;9.30;;;;;;;;;;5006311;28;20440;-82
2022/08/15 04:14:28;;;;;;;10.73;9.63;;;;;;;;;;5008591;28;20448;-81
2022/08/15 04:16:59;;;;;;;10.80;9.80;;;;;;;;;;4988883;28;20523;-82
2022/08/15 04:19:25;;;;;;;11.20;10.20;;;;;;;;;;5008917;28;20445;-82
2022/08/15 04:21:52;;;;;;;11.15;10.15;;;;;;;;;;5008095;28;20434;-82
2022/08/15 04:24:18;;;;;;;10.27;9.38;;;;;;;;;;5007841;28;20515;-82
2022/08/15 04:26:45;;;;;;;9.95;9.13;;;;;;;;;;5009072;28;20432;-82
2022/08/15 04:29:11;;;;;;;9.90;8.90;;;;;;;;;;5009005;28;20441;-82
2022/08/15 04:31:38;;;;;;;9.80;8.80;;;;;;;;;;5006564;28;20434;-82
2022/08/15 04:34:06;;;;;;;9.90;8.90;;;;;;;;;;5007170;28;21007;-81
2022/08/15 04:36:33;;;;;;;12.93;9.38;;;;;;;;;;5004742;28;20436;-81
2022/08/15 04:38:59;;;;;;;11.10;9.90;;;;;;;;;;5006792;28;20442;-81
2022/08/15 04:41:30;;;;;;;11.30;10.20;;;;;;;;;;5004040;28;20512;-80
2022/08/15 04:43:56;;;;;;;10.32;9.30;;;;;;;;;;5005311;28;20488;-81
2022/08/15 04:46:23;;;;;;;10.27;9.27;;;;;;;;;;5003426;28;20435;-81
2022/08/15 04:48:49;;;;;;;9.65;8.85;;;;;;;;;;5005280;28;20437;-82
2022/08/15 04:51:16;;;;;;;10.57;9.57;;;;;;;;;;5004701;28;20445;-80
2022/08/15 04:53:44;;;;;;;10.20;9.30;;;;;;;;;;5006400;28;20434;-80
2022/08/15 04:56:11;;;;;;;10.23;9.32;;;;;;;;;;5005335;28;20432;-80
2022/08/15 04:58:37;;;;;;;11.55;9.70;;;;;;;;;;5005407;28;20447;-81
2022/08/15 05:01:05;;;;;;;10.00;9.10;;;;;;;;;;5004266;28;20423;-82
2022/08/15 05:03:31;;;;;;;8.95;8.25;;;;;;;;;;5006490;28;20442;-80
2022/08/15 05:05:59;;;;;;;10.45;9.35;;;;;;;;;;5007258;28;21070;-81
2022/08/15 05:08:27;;;;;;;10.20;9.25;;;;;;;;;;5006047;28;20430;-82
2022/08/15 05:10:55;;;;;;;11.50;10.40;;;;;;;;;;5005243;28;20429;-82
2022/08/15 05:13:23;;;;;;;10.07;9.07;;;;;;;;;;5007117;28;20436;-81
2022/08/15 05:15:50;;;;;;;11.18;10.05;;;;;;;;;;5005936;28;20428;-82
2022/08/15 05:18:18;;;;;;;10.77;8.82;;;;;;;;;;5007940;28;20432;-81
2022/08/15 05:20:44;;;;;;;10.45;9.10;;;;;;;;;;5008383;28;20428;-82
2022/08/15 05:23:12;;;;;;;9.63;8.73;;;;;;;;;;5007089;28;20425;-82
2022/08/15 05:25:43;;;;;;;10.38;9.30;;;;;;;;;;5003958;28;20432;-81
2022/08/15 05:28:10;;;;;;;10.90;9.50;;;;;;;;;;5002210;28;20439;-81
2022/08/15 05:30:36;;;;;;;10.35;9.10;;;;;;;;;;4986695;28;20429;-81
2022/08/15 05:33:05;;;;;;;10.35;9.13;;;;;;;;;;5004467;28;20446;-81
2022/08/15 05:35:32;;;;;;;10.05;9.25;;;;;;;;;;5005194;28;20848;-81
2022/08/15 05:37:59;;;;;;;10.30;9.30;;;;;;;;;;5003886;28;20436;-81
2022/08/15 05:40:26;;;;;;;10.60;9.80;;;;;;;;;;5005239;28;20423;-82
2022/08/15 05:42:59;;;;;;;10.20;9.30;;;;;;;;;;5004168;28;20475;-81
2022/08/15 05:45:30;;;;;;;12.20;9.68;;;;;;;;;;4985536;28;20433;-81
2022/08/15 05:48:01;;;;;;;11.00;10.00;;;;;;;;;;5004817;28;20899;-81
2022/08/15 05:50:30;;;;;;;11.73;9.40;;;;;;;;;;5004025;28;20427;-81
2022/08/15 05:53:01;;;;;;;11.23;10.13;;;;;;;;;;5004334;28;20443;-81
2022/08/15 05:55:35;;;;;;;11.10;9.75;;;;;;;;;;5005714;28;20441;-81
2022/08/15 05:58:15;;;;;;;11.20;10.00;;;;;;;;;;4987981;28;20433;-81
2022/08/15 06:00:44;;;;;;;9.98;9.13;;;;;;;;;;5005650;28;20436;-81
2022/08/15 06:03:14;;;;;;;10.13;9.13;;;;;;;;;;5005433;28;20433;-82
2022/08/15 06:05:43;;;;;;;10.90;9.80;;;;;;;;;;5005572;28;20951;-80
2022/08/15 06:08:12;;;;;;;10.40;9.60;;;;;;;;;;5005665;28;20425;-81
2022/08/15 06:10:43;;;;;;;11.70;10.55;;;;;;;;;;5006828;28;20413;-81
2022/08/15 06:13:15;;;;;;;11.35;9.80;;;;;;;;;;5006849;28;20509;-81
2022/08/15 06:15:47;;;;;;;11.30;10.18;;;;;;;;;;5004560;28;20991;-80
2022/08/15 06:18:15;;;;;;;11.35;10.40;;;;;;;;;;5001622;28;20426;-80
2022/08/15 06:20:47;;;;;;;10.90;9.80;;;;;;;;;;5003426;28;20426;-80
2022/08/15 06:23:19;;;;;;;10.57;9.68;;;;;;;;;;5002251;28;20446;-80
2022/08/15 06:25:51;;;;;;;10.35;9.40;;;;;;;;;;5002347;28;20450;-81
2022/08/15 06:28:36;;;;;;;10.30;9.30;;;;;;;;;;5000955;28;20438;-81
2022/08/15 06:31:07;;;;;;;11.48;10.30;;;;;;;;;;4999509;28;20437;-80
2022/08/15 06:33:40;;;;;;;11.10;10.18;;;;;;;;;;5004905;28;20524;-81
2022/08/15 06:36:11;;;;;;;11.80;10.20;;;;;;;;;;4985305;28;20512;-81
2022/08/15 06:38:42;;;;;;;10.85;9.52;;;;;;;;;;5003332;28;20445;-81
2022/08/15 06:41:12;;;;;;;11.32;9.77;;;;;;;;;;5005411;28;20439;-81
2022/08/15 06:43:42;;;;;;;11.85;9.55;;;;;;;;;;5002748;28;20447;-81
2022/08/15 06:46:08;;;;;;;11.50;10.30;;;;;;;;;;5004412;28;20431;-82
2022/08/15 06:48:37;;;;;;;12.73;11.52;;;;;;;;;;5002238;28;20962;-80
2022/08/15 06:51:05;;;;;;;12.00;10.73;;;;;;;;;;4988714;28;20460;-81
2022/08/15 06:53:34;;;;;;;12.23;11.10;;;;;;;;;;5007118;28;20448;-81
2022/08/15 06:56:02;;;;;;;11.43;10.30;;;;;;;;;;5003346;28;21558;-81
2022/08/15 06:58:38;;;;;;;10.73;9.73;;;;;;;;;;5005904;28;20443;-82
2022/08/15 07:01:17;;;;;;;13.77;10.95;;;;;;;;;;5003932;28;20428;-81
2022/08/15 07:03:52;;;;;;;11.88;10.68;;;;;;;;;;5003292;28;20436;-80
2022/08/15 07:06:21;;;;;;;13.73;12.23;;;;;;;;;;5005828;28;20416;-82
2022/08/15 07:08:52;;;;;;;13.77;11.70;;;;;;;;;;5004819;28;20441;-80
2022/08/15 07:11:22;;;;;;;15.38;12.52;;;;;;;;;;5004129;28;20430;-81
2022/08/15 07:13:56;;;;;;;15.02;12.07;;;;;;;;;;5002527;28;20476;-81
2022/08/15 07:16:26;;;;;;;14.00;12.60;;;;;;;;;;4984884;28;20654;-80
2022/08/15 07:18:55;;;;;;;14.40;12.80;;;;;;;;;;4986780;28;20512;-80
2022/08/15 07:21:25;;;;;;;13.60;12.25;;;;;;;;;;5004059;28;20430;-81
2022/08/15 07:24:02;;;;;;;14.75;11.75;;;;;;;;;;5002670;28;20444;-81
2022/08/15 07:26:30;;;;;;;15.65;12.98;;;;;;;;;;5000692;28;20430;-81
2022/08/15 07:28:57;;;;;;;13.48;12.00;;;;;;;;;;5001610;28;20783;-80
2022/08/15 07:31:29;;;;;;;13.85;12.30;;;;;;;;;;5003092;28;20493;-81
2022/08/15 07:33:57;;;;;;;15.13;12.82;;;;;;;;;;5004164;28;20435;-80
2022/08/15 07:36:27;;;;;;;13.27;11.98;;;;;;;;;;5001990;28;20456;-82
2022/08/15 07:38:53;;;;;;;16.67;11.98;;;;;;;;;;5001225;28;20435;-81
2022/08/15 07:41:23;;;;;;;17.13;11.87;;;;;;;;;;4984425;28;20435;-81
2022/08/15 07:43:50;;;;;;;13.83;11.73;;;;;;;;;;5006410;28;20435;-81
2022/08/15 07:46:18;;;;;;;14.48;11.80;;;;;;;;;;5007358;28;20428;-81
2022/08/15 07:48:53;;;;;;;16.58;11.88;;;;;;;;;;5008479;28;20430;-81
2022/08/15 07:51:23;;;;;;;17.30;12.30;;;;;;;;;;5008670;28;20514;-82
2022/08/15 07:53:51;;;;;;;15.48;12.00;;;;;;;;;;4989452;28;20449;-81
2022/08/15 07:56:17;;;;;;;15.05;12.20;;;;;;;;;;5008515;28;20785;-81
2022/08/15 07:58:44;;;;;;;12.55;11.05;;;;;;;;;;5008351;28;20426;-80
2022/08/15 08:01:13;;;;;;;16.23;11.82;;;;;;;;;;5005398;28;20448;-81
2022/08/15 08:03:44;;;;;;;16.92;11.70;;;;;;;;;;5006916;28;20452;-81
2022/08/15 08:06:17;;;;;;;17.00;11.27;;;;;;;;;;5004020;28;20424;-81
2022/08/15 08:08:47;;;;;;;15.50;12.13;;;;;;;;;;5006605;28;20565;-80
2022/08/15 08:11:20;;;;;;;13.75;11.27;;;;;;;;;;5002048;28;20525;-80
2022/08/15 08:13:49;;;;;;;13.80;12.23;;;;;;;;;;5006658;28;20437;-81
2022/08/15 08:16:20;;;;;;;15.17;10.90;;;;;;;;;;5007776;28;20477;-81
2022/08/15 08:18:49;;;;;;;13.95;11.82;;;;;;;;;;5006239;28;20496;-81
2022/08/15 08:21:19;;;;;;;13.88;11.95;;;;;;;;;;5007447;28;20428;-81
2022/08/15 08:23:47;;;;;;;16.50;11.48;;;;;;;;;;5007509;28;20444;-81
2022/08/15 08:26:24;;;;;;;16.30;12.00;;;;;;;;;;5006472;28;22905;-80
2022/08/15 08:28:53;;;;;;;16.80;12.20;;;;;;;;;;4986163;28;20455;-80
2022/08/15 08:31:22;;;;;;;13.27;11.88;;;;;;;;;;4989819;28;20532;-82
2022/08/15 08:33:55;;;;;;;16.10;11.98;;;;;;;;;;5007234;28;20441;-82
2022/08/15 08:36:26;;;;;;;16.00;12.55;;;;;;;;;;5008722;28;20417;-81
2022/08/15 08:38:56;;;;;;;18.58;12.43;;;;;;;;;;5007770;28;20480;-81
2022/08/15 08:44:30;;;;;;;13.95;12.00;;;;;;;;;;5099593;27;20412;-80
2022/08/15 08:47:02;;;;;;;18.05;12.40;;;;;;;;;;5077542;27;20965;-81
2022/08/15 08:49:36;;;;;;;16.58;12.73;;;;;;;;;;5086091;28;20485;-83
2022/08/15 08:52:05;;;;;;;19.73;12.52;;;;;;;;;;5084437;28;20805;-81
2022/08/15 08:54:52;;;;;;;17.47;12.20;;;;;;;;;;5085356;28;20892;-82
2022/08/15 08:57:20;;;;;;;14.48;12.93;;;;;;;;;;5083920;28;20430;-82
2022/08/15 08:59:50;;;;;;;17.30;12.73;;;;;;;;;;5082966;28;20437;-82
2022/08/15 09:02:18;;;;;;;14.27;12.90;;;;;;;;;;5081245;28;20422;-82
2022/08/15 09:04:48;;;;;;;16.10;12.48;;;;;;;;;;5085579;28;20429;-82
2022/08/15 09:07:19;;;;;;;13.13;11.82;;;;;;;;;;5083144;28;20430;-82
2022/08/15 09:09:46;;;;;;;17.90;12.00;;;;;;;;;;5084048;28;20454;-81
2022/08/15 09:15:05;;;;;;;17.02;13.52;;;;;;;;;;5085587;28;20430;-80
2022/08/15 09:17:35;;;;;;;20.70;13.13;;;;;;;;;;5076559;28;20427;-81
2022/08/15 09:20:06;;;;;;;14.65;13.10;;;;;;;;;;5083840;28;20431;-80
2022/08/15 09:22:32;;;;;;;13.52;12.18;;;;;;;;;;5110853;28;20435;-82
2022/08/15 09:24:59;;;;;;;16.40;12.82;;;;;;;;;;5082440;28;20427;-81
2022/08/15 09:27:31;;;;;;;20.80;14.57;;;;;;;;;;5080866;28;20428;-82
2022/08/15 09:30:02;;;;;;;16.80;14.05;;;;;;;;;;5085410;28;20426;-82
2022/08/15 09:32:40;;;;;;;16.98;13.50;;;;;;;;;;5088485;28;20419;-82
2022/08/15 09:35:26;;;;;;;18.90;13.50;;;;;;;;;;5088339;28;20422;-81
2022/08/15 09:38:01;;;;;;;14.98;13.35;;;;;;;;;;5085931;28;20812;-82
2022/08/15 09:40:32;;;;;;;17.13;13.27;;;;;;;;;;5083082;28;20463;-81
2022/08/15 09:43:07;;;;;;;16.80;13.00;;;;;;;;;;5087710;28;20469;-82
2022/08/15 09:45:41;;;;;;;14.30;12.90;;;;;;;;;;5085654;28;20419;-80
2022/08/15 09:48:18;;;;;;;15.77;12.35;;;;;;;;;;5087681;28;20518;-82
2022/08/15 09:50:57;;;;;;;17.20;13.50;;;;;;;;;;5084746;28;20430;-82
2022/08/15 09:53:31;;;;;;;15.55;14.05;;;;;;;;;;5084999;28;20423;-84
2022/08/15 09:56:02;;;;;;;17.08;12.60;;;;;;;;;;5063911;28;20428;-80
2022/08/15 09:58:31;;;;;;;16.25;14.32;;;;;;;;;;5069750;28;20439;-78
2022/08/15 10:01:05;;;;;;;15.15;12.90;;;;;;;;;;5096609;28;20495;-79
2022/08/15 10:03:50;;;;;;;16.33;13.32;;;;;;;;;;5072662;28;20423;-81
2022/08/15 10:06:19;;;;;;;19.67;14.60;;;;;;;;;;5069653;28;20421;-82
2022/08/15 10:09:04;;;;;;;15.80;14.20;;;;;;;;;;5068536;28;20432;-82
2022/08/15 10:11:32;;;;;;;20.38;15.10;;;;;;;;;;5073455;28;20429;-82
2022/08/15 10:14:01;;;;;;;17.50;15.70;;;;;;;;;;5072848;28;20504;-82
2022/08/15 10:16:42;;;;;;;20.60;15.37;;;;;;;;;;5071102;28;20428;-81
2022/08/15 10:19:09;;;;;;;17.30;15.57;;;;;;;;;;5071315;28;20816;-82
2022/08/15 10:21:39;;;;;;;20.48;16.38;;;;;;;;;;5066432;28;20432;-82
2022/08/15 10:24:22;;;;;;;18.52;16.00;;;;;;;;;;5073524;28;20454;-84
2022/08/15 10:27:04;;;;;;;20.75;14.95;;;;;;;;;;5070939;28;20429;-81
2022/08/15 10:29:30;;;;;;;17.98;14.20;;;;;;;;;;5070127;28;20439;-81
2022/08/15 10:31:58;;;;;;;16.00;13.63;;;;;;;;;;5063230;28;20481;-81
2022/08/15 10:34:37;;;;;;;16.00;14.23;;;;;;;;;;5070656;28;20481;-80
2022/08/15 10:37:17;;;;;;;15.07;12.48;;;;;;;;;;5064457;28;20508;-84
2022/08/15 10:39:51;;;;;;;13.98;12.77;;;;;;;;;;5068603;28;20437;-81
2022/08/15 10:42:26;;;;;;;15.18;12.57;;;;;;;;;;5070693;28;20419;-81
2022/08/15 10:44:56;;;;;;;14.65;12.43;;;;;;;;;;5070178;28;20446;-82
2022/08/15 10:47:26;;;;;;;17.48;13.30;;;;;;;;;;5069174;28;20794;-82
2022/08/15 10:50:01;;;;;;;14.00;12.50;;;;;;;;;;5070341;28;20424;-82
2022/08/15 10:52:34;;;;;;;21.25;12.90;;;;;;;;;;5069858;28;20429;-83
2022/08/15 10:55:11;;;;;;;14.30;13.00;;;;;;;;;;5070504;28;20444;-82
2022/08/15 10:57:41;;;;;;;13.82;12.40;;;;;;;;;;5063391;28;20427;-82
2022/08/15 11:00:08;;;;;;;13.30;11.90;;;;;;;;;;5071262;28;20816;-82
2022/08/15 11:02:40;;;;;;;12.90;11.70;;;;;;;;;;5064393;28;20428;-83
2022/08/15 11:05:08;;;;;;;13.15;11.85;;;;;;;;;;5071448;28;20437;-83
2022/08/15 11:07:37;;;;;;;13.77;12.57;;;;;;;;;;5068617;28;20512;-83
2022/08/15 11:10:08;;;;;;;13.30;12.10;;;;;;;;;;5069017;28;20437;-82
2022/08/15 11:12:37;;;;;;;13.05;11.85;;;;;;;;;;5066947;28;20428;-82
2022/08/15 11:15:13;;;;;;;13.65;12.45;;;;;;;;;;5070678;28;20435;-82
2022/08/15 11:17:45;;;;;;;14.25;12.85;;;;;;;;;;5062596;28;20487;-81
2022/08/15 11:20:16;;;;;;;13.32;12.23;;;;;;;;;;5068866;28;21896;-82
2022/08/15 11:22:51;;;;;;;13.63;12.43;;;;;;;;;;5071757;28;20605;-81
2022/08/15 11:25:23;;;;;;;12.32;11.23;;;;;;;;;;5067299;28;20499;-82
2022/08/15 11:27:58;;;;;;;13.10;11.90;;;;;;;;;;5070014;28;20423;-83
2022/08/15 11:30:25;;;;;;;12.27;11.27;;;;;;;;;;5071314;28;20418;-83
2022/08/15 11:32:52;;;;;;;12.68;11.57;;;;;;;;;;5070498;28;20905;-81
2022/08/15 11:35:21;;;;;;;12.40;11.40;;;;;;;;;;5067293;28;20521;-81
2022/08/15 11:37:49;;;;;;;12.80;11.60;;;;;;;;;;5071421;28;20435;-81
2022/08/15 11:40:22;;;;;;;12.35;11.25;;;;;;;;;;5069960;28;20430;-80
2022/08/15 11:42:51;;;;;;;12.75;11.75;;;;;;;;;;5071138;28;20424;-83
2022/08/15 11:45:18;;;;;;;12.85;11.45;;;;;;;;;;5069202;28;20423;-81
2022/08/15 11:47:46;;;;;;;12.97;11.77;;;;;;;;;;5070140;28;20431;-83
2022/08/15 11:50:23;;;;;;;12.73;11.73;;;;;;;;;;5061683;28;20453;-81
2022/08/15 11:52:51;;;;;;;12.70;11.60;;;;;;;;;;5066896;28;20438;-83
2022/08/15 11:55:20;;;;;;;13.30;11.90;;;;;;;;;;5070082;28;20955;-83
2022/08/15 11:57:47;;;;;;;13.17;11.87;;;;;;;;;;5066963;28;20436;-82
2022/08/15 12:00:22;;;;;;;12.00;11.00;;;;;;;;;;5067100;28;20429;-83
2022/08/15 12:02:48;;;;;;;12.18;11.15;;;;;;;;;;5070903;28;20546;-84
2022/08/15 12:05:16;;;;;;;13.00;11.73;;;;;;;;;;5067772;28;20431;-82
2022/08/15 12:07:44;;;;;;;13.00;11.70;;;;;;;;;;5068165;28;20454;-82
2022/08/15 12:10:24;;;;;;;13.13;11.93;;;;;;;;;;5066164;28;20433;-83
2022/08/15 12:12:51;;;;;;;12.70;11.60;;;;;;;;;;5071748;28;20459;-83
2022/08/15 12:15:19;;;;;;;13.30;12.10;;;;;;;;;;5065273;28;20424;-82
2022/08/15 12:18:02;;;;;;;13.05;11.95;;;;;;;;;;5069302;28;20454;-83
2022/08/15 12:20:41;;;;;;;13.68;12.38;;;;;;;;;;5067953;28;22111;-82
2022/08/15 12:23:35;;;;;;;12.48;11.38;;;;;;;;;;5070199;28;20603;-83
2022/08/15 12:26:04;;;;;;;13.00;11.70;;;;;;;;;;5017526;28;20498;-81
2022/08/15 12:28:31;;;;;;;12.63;11.48;;;;;;;;;;5071688;28;20424;-83
2022/08/15 12:31:06;;;;;;;11.90;10.70;;;;;;;;;;5070014;28;20415;-82
2022/08/15 12:33:32;;;;;;;12.85;11.60;;;;;;;;;;5067349;28;20423;-83
2022/08/15 12:36:01;;;;;;;12.43;11.32;;;;;;;;;;5066654;28;20427;-83
2022/08/15 12:38:27;;;;;;;12.20;11.07;;;;;;;;;;5061957;28;20427;-83
2022/08/15 12:40:54;;;;;;;11.05;10.10;;;;;;;;;;5065348;28;20423;-82
2022/08/15 12:43:23;;;;;;;12.07;10.98;;;;;;;;;;5063248;28;20447;-82
2022/08/15 12:45:49;;;;;;;12.35;11.07;;;;;;;;;;5063117;28;20482;-82
2022/08/15 12:48:20;;;;;;;11.95;10.95;;;;;;;;;;5102121;28;20445;-81
2022/08/15 12:50:46;;;;;;;12.60;11.50;;;;;;;;;;5069880;28;20422;-82
2022/08/15 12:53:13;;;;;;;12.93;11.40;;;;;;;;;;5070399;28;20424;-84
2022/08/15 12:55:40;;;;;;;13.43;11.93;;;;;;;;;;5065973;28;22067;-82
2022/08/15 12:58:06;;;;;;;12.65;11.63;;;;;;;;;;5070267;28;20431;-79
2022/08/15 13:00:34;;;;;;;12.25;11.25;;;;;;;;;;5066028;28;20424;-82
2022/08/15 13:03:05;;;;;;;12.55;11.45;;;;;;;;;;5069553;28;20436;-80
2022/08/15 13:05:31;;;;;;;11.30;10.27;;;;;;;;;;5069694;28;20414;-81
2022/08/15 13:07:58;;;;;;;12.30;11.05;;;;;;;;;;5068719;28;20429;-82
2022/08/15 13:10:27;;;;;;;12.18;11.18;;;;;;;;;;5062845;28;20441;-82
2022/08/15 13:12:53;;;;;;;12.13;10.93;;;;;;;;;;5071010;28;20856;-82
2022/08/15 13:15:23;;;;;;;12.53;11.23;;;;;;;;;;5069202;28;20412;-82
2022/08/15 13:17:51;;;;;;;11.20;10.30;;;;;;;;;;5068344;28;20790;-83
2022/08/15 13:25:47;;;;;;;11.60;10.60;;;;;;;;;;5067217;28;20506;-80
2022/08/15 13:28:14;;;;;;;12.30;11.20;;;;;;;;;;5102134;28;20816;-82
2022/08/15 13:30:40;;;;;;;12.27;11.27;;;;;;;;;;5076119;28;20433;-81
2022/08/15 13:33:09;;;;;;;12.40;11.10;;;;;;;;;;5089277;28;20964;-85
2022/08/15 13:35:36;;;;;;;11.82;10.90;;;;;;;;;;5073414;28;20505;-84
2022/08/15 13:38:03;;;;;;;11.83;10.63;;;;;;;;;;5073480;28;20439;-81
2022/08/15 13:40:30;;;;;;;11.80;10.60;;;;;;;;;;5067092;28;21146;-80
2022/08/15 13:42:59;;;;;;;12.65;10.70;;;;;;;;;;5073787;28;20503;-80
2022/08/15 13:45:26;;;;;;;11.75;10.75;;;;;;;;;;5071729;28;20469;-81
2022/08/15 13:47:52;;;;;;;12.10;11.05;;;;;;;;;;5069327;28;20439;-84
2022/08/15 13:50:24;;;;;;;11.77;10.68;;;;;;;;;;5071759;28;20430;-80
2022/08/15 13:52:51;;;;;;;12.38;11.30;;;;;;;;;;5072482;28;20439;-79
2022/08/15 13:55:17;;;;;;;11.25;10.23;;;;;;;;;;5071665;28;20412;-81
2022/08/15 13:57:44;;;;;;;12.07;10.77;;;;;;;;;;5066532;28;20442;-82
2022/08/15 14:00:11;;;;;;;13.70;11.00;;;;;;;;;;5069634;28;20405;-81
2022/08/15 14:02:38;;;;;;;12.18;10.80;;;;;;;;;;5072379;28;20441;-82
2022/08/15 14:05:05;;;;;;;12.75;11.55;;;;;;;;;;5074251;28;20439;-83
2022/08/15 14:07:34;;;;;;;14.40;11.52;;;;;;;;;;5074169;28;20416;-82
2022/08/15 14:10:01;;;;;;;14.93;11.32;;;;;;;;;;5071223;28;20431;-81
2022/08/15 14:12:27;;;;;;;12.32;10.95;;;;;;;;;;5074134;28;20427;-82
2022/08/15 14:14:54;;;;;;;13.00;11.80;;;;;;;;;;5071815;28;20420;-82
2022/08/15 14:17:23;;;;;;;14.63;13.02;;;;;;;;;;5064829;28;20492;-82
2022/08/15 14:19:49;;;;;;;16.40;13.45;;;;;;;;;;5072574;28;20434;-83
2022/08/15 14:22:16;;;;;;;16.07;13.23;;;;;;;;;;5072204;28;20449;-83
2022/08/15 14:24:44;;;;;;;13.57;11.77;;;;;;;;;;5068588;28;20861;-83
2022/08/15 14:27:10;;;;;;;13.48;12.13;;;;;;;;;;5065072;28;20473;-82
2022/08/15 14:29:39;;;;;;;14.63;13.17;;;;;;;;;;5071097;28;20427;-82
2022/08/15 14:32:07;;;;;;;17.03;13.50;;;;;;;;;;5071313;28;20988;-81
2022/08/15 14:34:34;;;;;;;14.40;13.20;;;;;;;;;;5069798;28;20916;-81
2022/08/15 14:37:00;;;;;;;14.65;13.23;;;;;;;;;;5071771;28;20831;-82
2022/08/15 14:39:26;;;;;;;14.60;13.20;;;;;;;;;;5070464;28;20454;-80
2022/08/15 14:41:55;;;;;;;13.40;12.20;;;;;;;;;;5072938;28;20431;-82
2022/08/15 14:44:22;;;;;;;13.65;12.45;;;;;;;;;;5070264;28;20514;-82